»·PEaware :: N2938U KBUR-KSNA

N2938U :: KBUR-KSNA

FLIGHT INFORMATION

Flight Status: Arrived
Operator: Privately registered:
United States
More flights under this callsign
Pilot: Scott H. (20221)
Aircraft: CESSNA 172 SKYHAWK
(C172)
More flights by this aircraft type
Origin: KBUR Bob Hope-Burbank
United States
Destination: KSNA John Wayne-Orange Co
United States
More flights between these airports :: More routes between these airports
Route: ELMOO8 ELMOO V186 BAYJY V363 POXKU V8 SLI
File this flight plan on PilotEdge
Remarks:
Altitude:
(Current/Filed)
4,000ft
Speed:
(Current/Filed)
115kts
Departed: 04-Oct-18 07:27 PM
Arrived: 04-Oct-18 07:58 PM
Distance/Time
Traveled:
40nm/0:31
Distance/Time
To Go:
Arrived

Flight Plot

Page will automatically refresh every two minutes.


Map Options




Map Legend


Flown Route
Filed Route
Departure Airport
Arrival Airport
Navaid (VOR, NDB)
Fix

Horizontal Profiles

Position Reports

Time Latitude Longitude Heading Altitude Ground
Speed
04-Oct-18 19:13 34.196339 -118.367564 358 781ft 0kts
04-Oct-18 19:14 34.196339 -118.367564 358 781ft 0kts
04-Oct-18 19:15 34.196339 -118.367564 358 781ft 0kts
04-Oct-18 19:16 34.196339 -118.367564 358 781ft 0kts
04-Oct-18 19:17 34.196339 -118.367564 358 781ft 0kts
04-Oct-18 19:18 34.196339 -118.367564 358 781ft 0kts
04-Oct-18 19:19 34.196339 -118.367564 358 781ft 0kts
04-Oct-18 19:20 34.196339 -118.367564 358 781ft 0kts
04-Oct-18 19:21 34.196339 -118.367564 358 781ft 0kts
04-Oct-18 19:22 34.196339 -118.367564 358 781ft 0kts
04-Oct-18 19:23 34.196339 -118.367564 358 781ft 0kts
04-Oct-18 19:24 34.196339 -118.367564 358 781ft 0kts
04-Oct-18 19:25 34.196339 -118.367564 358 781ft 0kts
04-Oct-18 19:26 34.196893 -118.368179 276 781ft 9kts
04-Oct-18 19:27 34.197034 -118.369067 240 781ft 0kts
04-Oct-18 19:28 34.197034 -118.369067 240 781ft 0kts
04-Oct-18 19:29 34.197914 -118.365333 91 781ft 63kts
04-Oct-18 19:30 34.194230 -118.337177 130 1590ft 95kts
04-Oct-18 19:31 34.174834 -118.314789 136 2489ft 97kts
04-Oct-18 19:32 34.160407 -118.288804 109 3388ft 94kts
04-Oct-18 19:33 34.151997 -118.259607 108 4273ft 91kts
04-Oct-18 19:34 34.143162 -118.230303 109 5030ft 98kts
04-Oct-18 19:35 34.131538 -118.192419 110 4989ft 127kts
04-Oct-18 19:36 34.119095 -118.152031 110 4989ft 129kts
04-Oct-18 19:37 34.106592 -118.111501 110 4989ft 129kts
04-Oct-18 19:38 34.094067 -118.070918 110 4989ft 129kts
04-Oct-18 19:39 34.081542 -118.030359 110 4989ft 129kts
04-Oct-18 19:40 34.068983 -117.989716 110 4989ft 129kts
04-Oct-18 19:41 34.056417 -117.949087 110 4989ft 129kts
04-Oct-18 19:42 34.043845 -117.908468 110 4989ft 129kts
04-Oct-18 19:43 34.031299 -117.867959 110 4989ft 129kts
04-Oct-18 19:44 34.016770 -117.829849 122 4798ft 107kts
04-Oct-18 19:45 34.002776 -117.803565 122 4289ft 88kts
04-Oct-18 19:46 33.987053 -117.773998 122 3800ft 113kts
04-Oct-18 19:47 33.969817 -117.741688 122 3298ft 110kts
04-Oct-18 19:48 33.943755 -117.733028 183 2917ft 99kts
04-Oct-18 19:49 33.917372 -117.734897 183 2985ft 97kts
04-Oct-18 19:50 33.890461 -117.737379 198 2983ft 98kts
04-Oct-18 19:51 33.865857 -117.752014 204 2985ft 98kts
04-Oct-18 19:52 33.841594 -117.764712 202 2546ft 91kts
04-Oct-18 19:53 33.818172 -117.777504 204 2223ft 94kts
04-Oct-18 19:54 33.795114 -117.793594 213 2225ft 96kts
04-Oct-18 19:55 33.771687 -117.809544 205 2137ft 97kts
04-Oct-18 19:56 33.747345 -117.822446 203 1538ft 93kts
04-Oct-18 19:57 33.725917 -117.837204 212 1061ft 86kts
04-Oct-18 19:58 33.705086 -117.850524 205 622ft 79kts
04-Oct-18 19:59 33.687218 -117.861405 208 216ft 68kts
04-Oct-18 20:00 33.675376 -117.868950 205 60ft 24kts
04-Oct-18 20:01 33.670044 -117.872093 178 60ft 10kts
04-Oct-18 20:02 33.669221 -117.871642 138 60ft 2kts

Navigation Log

Ident Type
Flight plan parsing failed, navigation log unavailable